This is the latest recevied weather packets stored in our database for station/object YO6IKB-10. If no packets are shown the sender has not sent any weather packets the latest 1 day(s).
| Time | Temp. | Humidity | Pressure | Rain* | Wind** | Luminosity | Snow |
|---|---|---|---|---|---|---|---|
| 1778048635 | 20.56° C | 52% | 1011.3 hPa | 0 mm | - | - | - |
| 1778048034 | 19.44° C | 54% | 1011.3 hPa | 0 mm | - | - | - |
| 1778047734 | 19.44° C | 54% | 1011.3 hPa | 0 mm | - | - | - |
| 1778047133 | 18.33° C | 56% | 1011.4 hPa | 0 mm | - | - | - |
| 1778046833 | 17.78° C | 57% | 1011.5 hPa | 0 mm | - | - | - |
| 1778046533 | 17.78° C | 57% | 1011.5 hPa | 0 mm | - | - | - |
| 1778045932 | 18.33° C | 55% | 1011.5 hPa | 0 mm | - | - | - |
| 1778045632 | 19.44° C | 53% | 1011.5 hPa | 0 mm | - | - | - |
| 1778044731 | 19.44° C | 57% | 1011.4 hPa | 0 mm | - | - | - |
| 1778044130 | 18.33° C | 60% | 1011.4 hPa | 0 mm | - | - | - |
| 1778043530 | 17.78° C | 61% | 1011.3 hPa | 0 mm | - | - | - |
| 1778042929 | 16.11° C | 64% | 1011.3 hPa | 0 mm | - | - | - |
| 1778042629 | 15.56° C | 64% | 1011.3 hPa | 0 mm | - | - | - |
| 1778042328 | 15.56° C | 66% | 1011.2 hPa | 0 mm | - | - | - |
| 1778042028 | 15° C | 66% | 1011.2 hPa | 0 mm | - | - | - |
| 1778041728 | 15° C | 66% | 1011.1 hPa | 0 mm | - | - | - |
| 1778041428 | 15° C | 69% | 1011 hPa | 0 mm | - | - | - |
| 1778040827 | 12.78° C | 72% | 1011 hPa | 0 mm | - | - | - |
| 1778040527 | 12.22° C | 72% | 1011 hPa | 0 mm | - | - | - |
| 1778040226 | 12.22° C | 73% | 1011 hPa | 0 mm | - | - | - |
| 1778039926 | 12.22° C | 73% | 1011 hPa | 0 mm | - | - | - |
| 1778039626 | 12.22° C | 74% | 1011 hPa | 0 mm | - | - | - |
| 1778039326 | 11.67° C | 76% | 1010.9 hPa | 0 mm | - | - | - |
| 1778039025 | 10.56° C | 77% | 1011 hPa | 0 mm | - | - | - |
| 1778038725 | 10° C | 78% | 1010.9 hPa | 0 mm | - | - | - |
* Rain latest hour (hover to see other rain measurements)
** Current wind speed in m/s (hover to see current wind gust speed)